sensor_id;sensor_type;location;lat;lon;timestamp;P1;durP1;ratioP1;P2;durP2;ratioP2
78903;SDS011;68291;49.602;8.722;2023-05-14T00:00:39;5.70;;;4.20;;
78903;SDS011;68291;49.602;8.722;2023-05-14T00:03:29;8.23;;;4.10;;
78903;SDS011;68291;49.602;8.722;2023-05-14T00:06:43;5.27;;;4.30;;
78903;SDS011;68291;49.602;8.722;2023-05-14T00:09:40;5.47;;;4.10;;
78903;SDS011;68291;49.602;8.722;2023-05-14T00:12:37;5.30;;;4.10;;
78903;SDS011;68291;49.602;8.722;2023-05-14T00:15:29;4.27;;;3.87;;
78903;SDS011;68291;49.602;8.722;2023-05-14T00:18:20;4.67;;;3.80;;
78903;SDS011;68291;49.602;8.722;2023-05-14T00:21:17;7.30;;;3.63;;
78903;SDS011;68291;49.602;8.722;2023-05-14T00:24:20;4.53;;;3.90;;
78903;SDS011;68291;49.602;8.722;2023-05-14T00:27:17;4.50;;;3.63;;
78903;SDS011;68291;49.602;8.722;2023-05-14T00:30:07;8.30;;;3.80;;
78903;SDS011;68291;49.602;8.722;2023-05-14T00:33:05;4.30;;;3.90;;
78903;SDS011;68291;49.602;8.722;2023-05-14T00:35:57;3.70;;;3.40;;
78903;SDS011;68291;49.602;8.722;2023-05-14T00:38:55;5.43;;;4.37;;
78903;SDS011;68291;49.602;8.722;2023-05-14T00:41:53;10.67;;;3.83;;
78903;SDS011;68291;49.602;8.722;2023-05-14T00:44:47;5.23;;;4.00;;
78903;SDS011;68291;49.602;8.722;2023-05-14T00:47:40;4.17;;;3.77;;
78903;SDS011;68291;49.602;8.722;2023-05-14T00:50:32;4.77;;;4.00;;
78903;SDS011;68291;49.602;8.722;2023-05-14T00:53:37;6.67;;;4.27;;
78903;SDS011;68291;49.602;8.722;2023-05-14T00:56:29;4.00;;;3.60;;
78903;SDS011;68291;49.602;8.722;2023-05-14T00:59:33;7.23;;;4.50;;
78903;SDS011;68291;49.602;8.722;2023-05-14T01:02:28;4.30;;;3.90;;
78903;SDS011;68291;49.602;8.722;2023-05-14T01:05:26;4.13;;;3.70;;
78903;SDS011;68291;49.602;8.722;2023-05-14T01:08:31;5.43;;;3.60;;
78903;SDS011;68291;49.602;8.722;2023-05-14T01:11:41;4.33;;;3.80;;
78903;SDS011;68291;49.602;8.722;2023-05-14T01:15:01;7.17;;;4.03;;
78903;SDS011;68291;49.602;8.722;2023-05-14T01:17:58;6.50;;;3.83;;
78903;SDS011;68291;49.602;8.722;2023-05-14T01:20:55;6.37;;;4.00;;
78903;SDS011;68291;49.602;8.722;2023-05-14T01:23:53;4.00;;;3.70;;
78903;SDS011;68291;49.602;8.722;2023-05-14T01:26:46;4.87;;;4.20;;
78903;SDS011;68291;49.602;8.722;2023-05-14T01:29:44;4.50;;;3.90;;
78903;SDS011;68291;49.602;8.722;2023-05-14T01:32:50;6.60;;;3.90;;
78903;SDS011;68291;49.602;8.722;2023-05-14T01:35:46;5.27;;;3.93;;
78903;SDS011;68291;49.602;8.722;2023-05-14T01:38:39;5.80;;;3.87;;
78903;SDS011;68291;49.602;8.722;2023-05-14T01:41:41;4.60;;;3.67;;
78903;SDS011;68291;49.602;8.722;2023-05-14T01:44:39;4.10;;;3.70;;
78903;SDS011;68291;49.602;8.722;2023-05-14T01:47:32;4.37;;;3.97;;
78903;SDS011;68291;49.602;8.722;2023-05-14T01:50:37;5.00;;;3.97;;
78903;SDS011;68291;49.602;8.722;2023-05-14T01:53:27;5.23;;;4.70;;
78903;SDS011;68291;49.602;8.722;2023-05-14T01:56:21;4.60;;;4.10;;
78903;SDS011;68291;49.602;8.722;2023-05-14T01:59:22;4.83;;;4.37;;
78903;SDS011;68291;49.602;8.722;2023-05-14T02:02:14;4.60;;;4.20;;
78903;SDS011;68291;49.602;8.722;2023-05-14T02:05:05;7.00;;;4.00;;
78903;SDS011;68291;49.602;8.722;2023-05-14T02:08:02;5.43;;;3.90;;
78903;SDS011;68291;49.602;8.722;2023-05-14T02:10:57;5.90;;;4.00;;
78903;SDS011;68291;49.602;8.722;2023-05-14T02:13:55;5.83;;;3.27;;
78903;SDS011;68291;49.602;8.722;2023-05-14T02:16:50;3.77;;;3.47;;
78903;SDS011;68291;49.602;8.722;2023-05-14T02:19:47;7.53;;;4.17;;
78903;SDS011;68291;49.602;8.722;2023-05-14T02:22:41;7.00;;;4.30;;
78903;SDS011;68291;49.602;8.722;2023-05-14T02:25:31;4.00;;;3.60;;
78903;SDS011;68291;49.602;8.722;2023-05-14T02:28:29;4.47;;;4.07;;
78903;SDS011;68291;49.602;8.722;2023-05-14T02:31:27;7.00;;;3.93;;
78903;SDS011;68291;49.602;8.722;2023-05-14T02:34:23;4.20;;;3.80;;
78903;SDS011;68291;49.602;8.722;2023-05-14T02:37:21;3.97;;;3.67;;
78903;SDS011;68291;49.602;8.722;2023-05-14T02:40:15;4.70;;;4.30;;
78903;SDS011;68291;49.602;8.722;2023-05-14T02:43:05;4.40;;;4.00;;
78903;SDS011;68291;49.602;8.722;2023-05-14T02:45:58;5.60;;;4.40;;
78903;SDS011;68291;49.602;8.722;2023-05-14T02:48:56;4.20;;;3.80;;
78903;SDS011;68291;49.602;8.722;2023-05-14T02:51:53;6.90;;;3.97;;
78903;SDS011;68291;49.602;8.722;2023-05-14T02:54:56;4.40;;;3.83;;
78903;SDS011;68291;49.602;8.722;2023-05-14T02:57:54;5.47;;;3.77;;
78903;SDS011;68291;49.602;8.722;2023-05-14T03:00:47;5.13;;;4.27;;
78903;SDS011;68291;49.602;8.722;2023-05-14T03:03:37;4.17;;;3.77;;
78903;SDS011;68291;49.602;8.722;2023-05-14T03:06:29;4.60;;;4.17;;
78903;SDS011;68291;49.602;8.722;2023-05-14T03:09:33;4.10;;;3.70;;
78903;SDS011;68291;49.602;8.722;2023-05-14T03:12:28;4.70;;;3.93;;
78903;SDS011;68291;49.602;8.722;2023-05-14T03:15:27;5.27;;;4.03;;
78903;SDS011;68291;49.602;8.722;2023-05-14T03:18:18;5.70;;;4.20;;
78903;SDS011;68291;49.602;8.722;2023-05-14T03:21:08;5.00;;;4.13;;
78903;SDS011;68291;49.602;8.722;2023-05-14T03:24:02;4.17;;;3.87;;
78903;SDS011;68291;49.602;8.722;2023-05-14T03:27:03;5.77;;;4.03;;
78903;SDS011;68291;49.602;8.722;2023-05-14T03:29:57;5.23;;;3.80;;
78903;SDS011;68291;49.602;8.722;2023-05-14T03:32:47;5.30;;;4.00;;
78903;SDS011;68291;49.602;8.722;2023-05-14T03:35:37;4.97;;;4.47;;
78903;SDS011;68291;49.602;8.722;2023-05-14T03:38:30;4.23;;;3.80;;
78903;SDS011;68291;49.602;8.722;2023-05-14T03:41:41;5.07;;;4.40;;
78903;SDS011;68291;49.602;8.722;2023-05-14T03:44:43;5.70;;;4.20;;
78903;SDS011;68291;49.602;8.722;2023-05-14T03:47:37;6.27;;;4.50;;
78903;SDS011;68291;49.602;8.722;2023-05-14T03:50:27;4.63;;;4.23;;
78903;SDS011;68291;49.602;8.722;2023-05-14T03:53:17;6.83;;;4.50;;
78903;SDS011;68291;49.602;8.722;2023-05-14T03:56:07;4.27;;;3.90;;
78903;SDS011;68291;49.602;8.722;2023-05-14T03:59:05;5.07;;;4.57;;
78903;SDS011;68291;49.602;8.722;2023-05-14T04:02:03;5.40;;;4.33;;
78903;SDS011;68291;49.602;8.722;2023-05-14T04:05:07;7.83;;;4.30;;
78903;SDS011;68291;49.602;8.722;2023-05-14T04:07:59;4.37;;;3.83;;
78903;SDS011;68291;49.602;8.722;2023-05-14T04:10:52;4.27;;;3.87;;
78903;SDS011;68291;49.602;8.722;2023-05-14T04:13:49;4.20;;;3.77;;
78903;SDS011;68291;49.602;8.722;2023-05-14T04:16:38;4.80;;;4.30;;
78903;SDS011;68291;49.602;8.722;2023-05-14T04:19:43;3.77;;;3.47;;
78903;SDS011;68291;49.602;8.722;2023-05-14T04:22:35;5.10;;;4.00;;
78903;SDS011;68291;49.602;8.722;2023-05-14T04:25:26;5.93;;;4.30;;
78903;SDS011;68291;49.602;8.722;2023-05-14T04:28:27;5.93;;;4.40;;
78903;SDS011;68291;49.602;8.722;2023-05-14T04:31:19;4.37;;;3.97;;
78903;SDS011;68291;49.602;8.722;2023-05-14T04:34:17;7.77;;;4.20;;
78903;SDS011;68291;49.602;8.722;2023-05-14T04:37:23;18.63;;;4.50;;
78903;SDS011;68291;49.602;8.722;2023-05-14T04:40:18;4.90;;;4.03;;
78903;SDS011;68291;49.602;8.722;2023-05-14T04:43:10;5.40;;;3.87;;
78903;SDS011;68291;49.602;8.722;2023-05-14T04:46:07;4.57;;;3.80;;
78903;SDS011;68291;49.602;8.722;2023-05-14T04:49:06;6.43;;;4.10;;
78903;SDS011;68291;49.602;8.722;2023-05-14T04:52:01;4.60;;;4.20;;
78903;SDS011;68291;49.602;8.722;2023-05-14T04:54:59;4.20;;;3.73;;
78903;SDS011;68291;49.602;8.722;2023-05-14T04:57:53;4.87;;;4.33;;
78903;SDS011;68291;49.602;8.722;2023-05-14T05:00:47;5.33;;;4.07;;
78903;SDS011;68291;49.602;8.722;2023-05-14T05:03:37;5.37;;;4.40;;
78903;SDS011;68291;49.602;8.722;2023-05-14T05:06:32;5.43;;;4.50;;
78903;SDS011;68291;49.602;8.722;2023-05-14T05:09:27;5.13;;;4.63;;
78903;SDS011;68291;49.602;8.722;2023-05-14T05:12:23;7.63;;;4.83;;
78903;SDS011;68291;49.602;8.722;2023-05-14T05:15:19;5.40;;;4.90;;
78903;SDS011;68291;49.602;8.722;2023-05-14T05:18:17;5.30;;;4.80;;
78903;SDS011;68291;49.602;8.722;2023-05-14T05:21:15;6.47;;;4.60;;
78903;SDS011;68291;49.602;8.722;2023-05-14T05:24:09;5.67;;;4.70;;
78903;SDS011;68291;49.602;8.722;2023-05-14T05:26:59;5.47;;;4.97;;
78903;SDS011;68291;49.602;8.722;2023-05-14T05:29:53;6.40;;;4.63;;
78903;SDS011;68291;49.602;8.722;2023-05-14T05:32:50;4.93;;;4.43;;
78903;SDS011;68291;49.602;8.722;2023-05-14T05:35:47;5.43;;;4.93;;
78903;SDS011;68291;49.602;8.722;2023-05-14T05:38:38;5.40;;;4.90;;
78903;SDS011;68291;49.602;8.722;2023-05-14T05:41:29;5.23;;;4.73;;
78903;SDS011;68291;49.602;8.722;2023-05-14T05:44:27;5.03;;;4.53;;
78903;SDS011;68291;49.602;8.722;2023-05-14T05:47:22;4.97;;;4.47;;
78903;SDS011;68291;49.602;8.722;2023-05-14T05:50:16;6.50;;;4.83;;
78903;SDS011;68291;49.602;8.722;2023-05-14T05:53:07;5.30;;;4.80;;
78903;SDS011;68291;49.602;8.722;2023-05-14T05:55:57;5.27;;;4.77;;
78903;SDS011;68291;49.602;8.722;2023-05-14T05:58:55;6.87;;;4.70;;
78903;SDS011;68291;49.602;8.722;2023-05-14T06:01:47;5.70;;;4.93;;
78903;SDS011;68291;49.602;8.722;2023-05-14T06:04:43;5.30;;;4.80;;
78903;SDS011;68291;49.602;8.722;2023-05-14T06:07:47;5.20;;;4.70;;
78903;SDS011;68291;49.602;8.722;2023-05-14T06:10:42;4.33;;;3.93;;
78903;SDS011;68291;49.602;8.722;2023-05-14T06:13:41;4.77;;;4.33;;
78903;SDS011;68291;49.602;8.722;2023-05-14T06:16:37;5.87;;;4.60;;
78903;SDS011;68291;49.602;8.722;2023-05-14T06:19:27;5.00;;;4.53;;
78903;SDS011;68291;49.602;8.722;2023-05-14T06:22:23;5.40;;;4.90;;
78903;SDS011;68291;49.602;8.722;2023-05-14T06:25:27;4.80;;;4.30;;
78903;SDS011;68291;49.602;8.722;2023-05-14T06:28:19;6.37;;;5.00;;
78903;SDS011;68291;49.602;8.722;2023-05-14T06:31:27;5.57;;;5.03;;
78903;SDS011;68291;49.602;8.722;2023-05-14T06:34:17;4.93;;;4.40;;
78903;SDS011;68291;49.602;8.722;2023-05-14T06:37:15;7.67;;;4.33;;
78903;SDS011;68291;49.602;8.722;2023-05-14T06:40:13;4.73;;;4.30;;
78903;SDS011;68291;49.602;8.722;2023-05-14T06:43:07;5.27;;;4.77;;
78903;SDS011;68291;49.602;8.722;2023-05-14T06:45:57;4.93;;;4.00;;
78903;SDS011;68291;49.602;8.722;2023-05-14T06:48:47;4.93;;;4.47;;
78903;SDS011;68291;49.602;8.722;2023-05-14T06:51:38;5.23;;;4.73;;
78903;SDS011;68291;49.602;8.722;2023-05-14T06:54:36;4.90;;;4.50;;
78903;SDS011;68291;49.602;8.722;2023-05-14T06:57:29;4.80;;;4.40;;
78903;SDS011;68291;49.602;8.722;2023-05-14T07:00:26;4.60;;;3.83;;
78903;SDS011;68291;49.602;8.722;2023-05-14T07:03:17;4.80;;;4.40;;
78903;SDS011;68291;49.602;8.722;2023-05-14T07:06:06;4.87;;;4.40;;
78903;SDS011;68291;49.602;8.722;2023-05-14T07:09:05;4.60;;;4.20;;
78903;SDS011;68291;49.602;8.722;2023-05-14T07:11:55;4.67;;;4.20;;
78903;SDS011;68291;49.602;8.722;2023-05-14T07:14:55;4.57;;;4.13;;
78903;SDS011;68291;49.602;8.722;2023-05-14T07:17:47;4.50;;;4.10;;
78903;SDS011;68291;49.602;8.722;2023-05-14T07:20:42;5.40;;;4.43;;
78903;SDS011;68291;49.602;8.722;2023-05-14T07:23:37;4.70;;;4.30;;
78903;SDS011;68291;49.602;8.722;2023-05-14T07:26:27;4.93;;;4.43;;
78903;SDS011;68291;49.602;8.722;2023-05-14T07:29:16;4.70;;;4.23;;
78903;SDS011;68291;49.602;8.722;2023-05-14T07:32:09;5.17;;;4.67;;
78903;SDS011;68291;49.602;8.722;2023-05-14T07:35:03;5.20;;;4.70;;
78903;SDS011;68291;49.602;8.722;2023-05-14T07:38:07;5.67;;;4.47;;
78903;SDS011;68291;49.602;8.722;2023-05-14T07:40:57;4.70;;;4.30;;
78903;SDS011;68291;49.602;8.722;2023-05-14T07:43:56;6.10;;;4.60;;
78903;SDS011;68291;49.602;8.722;2023-05-14T07:46:54;5.10;;;4.60;;
78903;SDS011;68291;49.602;8.722;2023-05-14T07:49:54;5.17;;;4.67;;
78903;SDS011;68291;49.602;8.722;2023-05-14T07:52:45;5.30;;;4.80;;
78903;SDS011;68291;49.602;8.722;2023-05-14T07:55:36;5.00;;;4.50;;
78903;SDS011;68291;49.602;8.722;2023-05-14T07:58:34;5.20;;;4.70;;
78903;SDS011;68291;49.602;8.722;2023-05-14T08:01:27;4.90;;;4.50;;
78903;SDS011;68291;49.602;8.722;2023-05-14T08:04:18;4.90;;;4.40;;
78903;SDS011;68291;49.602;8.722;2023-05-14T08:07:31;5.17;;;4.40;;
78903;SDS011;68291;49.602;8.722;2023-05-14T08:10:22;4.87;;;4.47;;
78903;SDS011;68291;49.602;8.722;2023-05-14T08:13:15;4.83;;;4.43;;
78903;SDS011;68291;49.602;8.722;2023-05-14T08:16:14;5.20;;;4.70;;
78903;SDS011;68291;49.602;8.722;2023-05-14T08:19:06;5.63;;;5.03;;
78903;SDS011;68291;49.602;8.722;2023-05-14T08:22:00;7.07;;;4.90;;
78903;SDS011;68291;49.602;8.722;2023-05-14T08:24:59;5.80;;;5.10;;
78903;SDS011;68291;49.602;8.722;2023-05-14T08:27:57;4.90;;;4.43;;
78903;SDS011;68291;49.602;8.722;2023-05-14T08:30:53;5.70;;;4.60;;
78903;SDS011;68291;49.602;8.722;2023-05-14T08:33:58;4.90;;;4.50;;
78903;SDS011;68291;49.602;8.722;2023-05-14T08:36:48;4.93;;;4.50;;
78903;SDS011;68291;49.602;8.722;2023-05-14T08:40:09;4.90;;;4.50;;
78903;SDS011;68291;49.602;8.722;2023-05-14T08:43:15;4.90;;;4.47;;
78903;SDS011;68291;49.602;8.722;2023-05-14T08:46:13;5.10;;;4.60;;
78903;SDS011;68291;49.602;8.722;2023-05-14T08:49:30;4.77;;;4.33;;
78903;SDS011;68291;49.602;8.722;2023-05-14T08:52:42;5.07;;;4.57;;
78903;SDS011;68291;49.602;8.722;2023-05-14T08:55:42;6.13;;;4.60;;
78903;SDS011;68291;49.602;8.722;2023-05-14T08:58:47;4.80;;;4.37;;
78903;SDS011;68291;49.602;8.722;2023-05-14T09:01:46;5.60;;;4.13;;
78903;SDS011;68291;49.602;8.722;2023-05-14T09:04:41;4.27;;;3.87;;
78903;SDS011;68291;49.602;8.722;2023-05-14T09:07:50;5.20;;;4.40;;
78903;SDS011;68291;49.602;8.722;2023-05-14T09:10:44;4.60;;;4.20;;
78903;SDS011;68291;49.602;8.722;2023-05-14T09:13:41;4.60;;;4.20;;
78903;SDS011;68291;49.602;8.722;2023-05-14T09:16:49;4.40;;;3.93;;
78903;SDS011;68291;49.602;8.722;2023-05-14T09:19:39;4.40;;;4.10;;
78903;SDS011;68291;49.602;8.722;2023-05-14T09:22:33;6.43;;;3.77;;
78903;SDS011;68291;49.602;8.722;2023-05-14T09:25:25;4.60;;;4.20;;
78903;SDS011;68291;49.602;8.722;2023-05-14T09:28:24;4.40;;;4.00;;
78903;SDS011;68291;49.602;8.722;2023-05-14T09:31:15;4.80;;;4.40;;
78903;SDS011;68291;49.602;8.722;2023-05-14T09:34:19;4.87;;;3.63;;
78903;SDS011;68291;49.602;8.722;2023-05-14T09:37:22;4.33;;;3.93;;
78903;SDS011;68291;49.602;8.722;2023-05-14T09:40:22;4.70;;;3.87;;
78903;SDS011;68291;49.602;8.722;2023-05-14T09:43:13;4.30;;;3.90;;
78903;SDS011;68291;49.602;8.722;2023-05-14T09:46:20;4.93;;;3.73;;
78903;SDS011;68291;49.602;8.722;2023-05-14T09:49:17;4.40;;;4.00;;
78903;SDS011;68291;49.602;8.722;2023-05-14T09:52:08;4.87;;;3.80;;
78903;SDS011;68291;49.602;8.722;2023-05-14T09:55:09;5.00;;;4.10;;
78903;SDS011;68291;49.602;8.722;2023-05-14T09:57:59;4.33;;;3.90;;
78903;SDS011;68291;49.602;8.722;2023-05-14T10:00:58;4.07;;;3.70;;
78903;SDS011;68291;49.602;8.722;2023-05-14T10:04:00;4.37;;;3.93;;
78903;SDS011;68291;49.602;8.722;2023-05-14T10:07:14;5.10;;;3.57;;
78903;SDS011;68291;49.602;8.722;2023-05-14T10:10:12;4.17;;;3.77;;
78903;SDS011;68291;49.602;8.722;2023-05-14T10:13:17;4.30;;;3.90;;
78903;SDS011;68291;49.602;8.722;2023-05-14T10:16:20;4.93;;;3.87;;
78903;SDS011;68291;49.602;8.722;2023-05-14T10:19:41;3.93;;;3.57;;
78903;SDS011;68291;49.602;8.722;2023-05-14T10:22:40;4.07;;;3.77;;
78903;SDS011;68291;49.602;8.722;2023-05-14T10:25:30;3.97;;;3.50;;
78903;SDS011;68291;49.602;8.722;2023-05-14T10:28:28;3.70;;;3.40;;
78903;SDS011;68291;49.602;8.722;2023-05-14T10:34:43;3.67;;;3.37;;
78903;SDS011;68291;49.602;8.722;2023-05-14T10:37:38;3.90;;;3.50;;
78903;SDS011;68291;49.602;8.722;2023-05-14T10:40:39;4.03;;;3.63;;
78903;SDS011;68291;49.602;8.722;2023-05-14T10:43:47;3.73;;;3.43;;
78903;SDS011;68291;49.602;8.722;2023-05-14T10:46:46;3.90;;;3.60;;
78903;SDS011;68291;49.602;8.722;2023-05-14T10:49:36;5.47;;;4.10;;
78903;SDS011;68291;49.602;8.722;2023-05-14T10:52:39;4.43;;;3.50;;
78903;SDS011;68291;49.602;8.722;2023-05-14T10:55:31;3.27;;;2.97;;
78903;SDS011;68291;49.602;8.722;2023-05-14T10:58:21;4.13;;;3.73;;
78903;SDS011;68291;49.602;8.722;2023-05-14T11:01:16;3.87;;;3.57;;
78903;SDS011;68291;49.602;8.722;2023-05-14T11:04:07;3.60;;;3.30;;
78903;SDS011;68291;49.602;8.722;2023-05-14T11:07:05;4.87;;;3.93;;
78903;SDS011;68291;49.602;8.722;2023-05-14T11:10:17;4.00;;;3.70;;
78903;SDS011;68291;49.602;8.722;2023-05-14T11:13:09;3.70;;;3.40;;
78903;SDS011;68291;49.602;8.722;2023-05-14T11:16:08;3.83;;;3.53;;
78903;SDS011;68291;49.602;8.722;2023-05-14T11:19:18;4.17;;;3.80;;
78903;SDS011;68291;49.602;8.722;2023-05-14T11:22:13;3.50;;;3.20;;
78903;SDS011;68291;49.602;8.722;2023-05-14T11:25:17;4.03;;;3.63;;
78903;SDS011;68291;49.602;8.722;2023-05-14T11:28:12;4.17;;;3.87;;
78903;SDS011;68291;49.602;8.722;2023-05-14T11:31:10;3.70;;;3.40;;
78903;SDS011;68291;49.602;8.722;2023-05-14T11:34:10;3.80;;;3.50;;
78903;SDS011;68291;49.602;8.722;2023-05-14T11:37:18;3.50;;;3.20;;
78903;SDS011;68291;49.602;8.722;2023-05-14T11:40:23;3.60;;;3.30;;
78903;SDS011;68291;49.602;8.722;2023-05-14T11:43:27;3.43;;;3.13;;
78903;SDS011;68291;49.602;8.722;2023-05-14T11:46:26;3.70;;;3.40;;
78903;SDS011;68291;49.602;8.722;2023-05-14T11:49:23;3.87;;;3.47;;
78903;SDS011;68291;49.602;8.722;2023-05-14T11:52:42;4.23;;;3.50;;
78903;SDS011;68291;49.602;8.722;2023-05-14T11:55:55;3.40;;;3.10;;
78903;SDS011;68291;49.602;8.722;2023-05-14T11:58:46;3.83;;;3.53;;
78903;SDS011;68291;49.602;8.722;2023-05-14T12:01:44;3.60;;;3.30;;
78903;SDS011;68291;49.602;8.722;2023-05-14T12:04:38;3.60;;;3.30;;
78903;SDS011;68291;49.602;8.722;2023-05-14T12:07:51;3.80;;;3.50;;
78903;SDS011;68291;49.602;8.722;2023-05-14T12:11:20;3.90;;;3.60;;
78903;SDS011;68291;49.602;8.722;2023-05-14T12:14:20;4.07;;;3.67;;
78903;SDS011;68291;49.602;8.722;2023-05-14T12:17:19;3.63;;;3.33;;
78903;SDS011;68291;49.602;8.722;2023-05-14T12:20:16;4.00;;;3.70;;
78903;SDS011;68291;49.602;8.722;2023-05-14T12:23:13;3.80;;;3.50;;
78903;SDS011;68291;49.602;8.722;2023-05-14T12:26:14;4.37;;;4.00;;
78903;SDS011;68291;49.602;8.722;2023-05-14T12:29:04;3.60;;;3.30;;
78903;SDS011;68291;49.602;8.722;2023-05-14T12:31:56;4.20;;;3.80;;
78903;SDS011;68291;49.602;8.722;2023-05-14T12:35:12;3.87;;;3.30;;
78903;SDS011;68291;49.602;8.722;2023-05-14T12:38:05;3.70;;;3.40;;
78903;SDS011;68291;49.602;8.722;2023-05-14T12:40:57;3.47;;;3.17;;
78903;SDS011;68291;49.602;8.722;2023-05-14T12:44:03;3.50;;;3.20;;
78903;SDS011;68291;49.602;8.722;2023-05-14T12:46:56;3.70;;;3.40;;
78903;SDS011;68291;49.602;8.722;2023-05-14T12:50:06;3.60;;;3.30;;
78903;SDS011;68291;49.602;8.722;2023-05-14T12:53:06;4.03;;;3.30;;
78903;SDS011;68291;49.602;8.722;2023-05-14T12:56:04;3.40;;;2.83;;
78903;SDS011;68291;49.602;8.722;2023-05-14T12:59:01;3.37;;;3.17;;
78903;SDS011;68291;49.602;8.722;2023-05-14T13:02:15;3.37;;;3.07;;
78903;SDS011;68291;49.602;8.722;2023-05-14T13:05:15;4.03;;;3.47;;
78903;SDS011;68291;49.602;8.722;2023-05-14T13:08:06;3.70;;;3.03;;
78903;SDS011;68291;49.602;8.722;2023-05-14T13:11:02;3.50;;;3.20;;
78903;SDS011;68291;49.602;8.722;2023-05-14T13:14:32;3.30;;;3.00;;
78903;SDS011;68291;49.602;8.722;2023-05-14T13:17:32;3.43;;;3.13;;
78903;SDS011;68291;49.602;8.722;2023-05-14T13:20:30;3.17;;;2.97;;
78903;SDS011;68291;49.602;8.722;2023-05-14T13:23:28;3.10;;;2.90;;
78903;SDS011;68291;49.602;8.722;2023-05-14T13:26:27;3.07;;;2.87;;
78903;SDS011;68291;49.602;8.722;2023-05-14T13:29:35;3.43;;;2.77;;
78903;SDS011;68291;49.602;8.722;2023-05-14T13:32:39;2.60;;;2.40;;
78903;SDS011;68291;49.602;8.722;2023-05-14T13:35:28;2.90;;;2.70;;
78903;SDS011;68291;49.602;8.722;2023-05-14T13:38:27;2.90;;;2.70;;
78903;SDS011;68291;49.602;8.722;2023-05-14T13:41:26;3.33;;;2.63;;
78903;SDS011;68291;49.602;8.722;2023-05-14T13:44:23;2.63;;;2.43;;
78903;SDS011;68291;49.602;8.722;2023-05-14T13:47:26;3.07;;;2.77;;
78903;SDS011;68291;49.602;8.722;2023-05-14T13:50:17;3.63;;;2.40;;
78903;SDS011;68291;49.602;8.722;2023-05-14T13:53:08;2.60;;;2.40;;
78903;SDS011;68291;49.602;8.722;2023-05-14T13:56:10;2.43;;;2.23;;
78903;SDS011;68291;49.602;8.722;2023-05-14T13:59:01;2.63;;;2.43;;
78903;SDS011;68291;49.602;8.722;2023-05-14T14:02:03;2.40;;;2.20;;
78903;SDS011;68291;49.602;8.722;2023-05-14T14:04:54;2.50;;;2.30;;
78903;SDS011;68291;49.602;8.722;2023-05-14T14:07:53;2.50;;;2.30;;
78903;SDS011;68291;49.602;8.722;2023-05-14T14:11:02;2.27;;;2.10;;
78903;SDS011;68291;49.602;8.722;2023-05-14T14:14:01;2.30;;;2.10;;
78903;SDS011;68291;49.602;8.722;2023-05-14T14:16:52;2.63;;;2.13;;
78903;SDS011;68291;49.602;8.722;2023-05-14T14:19:54;2.27;;;2.13;;
78903;SDS011;68291;49.602;8.722;2023-05-14T14:22:46;2.20;;;2.10;;
78903;SDS011;68291;49.602;8.722;2023-05-14T14:25:44;2.40;;;2.07;;
78903;SDS011;68291;49.602;8.722;2023-05-14T14:28:34;3.40;;;2.53;;
78903;SDS011;68291;49.602;8.722;2023-05-14T14:31:34;2.33;;;2.13;;
78903;SDS011;68291;49.602;8.722;2023-05-14T14:34:31;2.10;;;2.00;;
78903;SDS011;68291;49.602;8.722;2023-05-14T14:37:27;2.37;;;2.17;;
78903;SDS011;68291;49.602;8.722;2023-05-14T14:40:24;2.13;;;2.03;;
78903;SDS011;68291;49.602;8.722;2023-05-14T14:43:18;2.40;;;2.20;;
78903;SDS011;68291;49.602;8.722;2023-05-14T14:46:16;2.57;;;2.37;;
78903;SDS011;68291;49.602;8.722;2023-05-14T14:49:18;3.20;;;2.10;;
78903;SDS011;68291;49.602;8.722;2023-05-14T14:52:35;2.17;;;2.00;;
78903;SDS011;68291;49.602;8.722;2023-05-14T14:55:39;2.00;;;1.90;;
78903;SDS011;68291;49.602;8.722;2023-05-14T14:58:47;2.30;;;2.10;;
78903;SDS011;68291;49.602;8.722;2023-05-14T15:01:45;2.83;;;2.10;;
78903;SDS011;68291;49.602;8.722;2023-05-14T15:04:53;2.50;;;2.30;;
78903;SDS011;68291;49.602;8.722;2023-05-14T15:07:51;2.23;;;2.13;;
78903;SDS011;68291;49.602;8.722;2023-05-14T15:10:46;1.90;;;1.80;;
78903;SDS011;68291;49.602;8.722;2023-05-14T15:13:44;2.87;;;2.10;;
78903;SDS011;68291;49.602;8.722;2023-05-14T15:16:40;2.67;;;2.23;;
78903;SDS011;68291;49.602;8.722;2023-05-14T15:19:38;2.67;;;2.47;;
78903;SDS011;68291;49.602;8.722;2023-05-14T15:22:45;2.50;;;2.30;;
78903;SDS011;68291;49.602;8.722;2023-05-14T15:25:41;2.47;;;2.27;;
78903;SDS011;68291;49.602;8.722;2023-05-14T15:28:31;3.03;;;2.30;;
78903;SDS011;68291;49.602;8.722;2023-05-14T15:31:21;2.10;;;2.00;;
78903;SDS011;68291;49.602;8.722;2023-05-14T15:34:19;2.10;;;2.00;;
78903;SDS011;68291;49.602;8.722;2023-05-14T15:37:08;2.30;;;2.10;;
78903;SDS011;68291;49.602;8.722;2023-05-14T15:40:01;2.00;;;1.90;;
78903;SDS011;68291;49.602;8.722;2023-05-14T15:43:22;1.90;;;1.80;;
78903;SDS011;68291;49.602;8.722;2023-05-14T15:46:16;2.00;;;1.90;;
78903;SDS011;68291;49.602;8.722;2023-05-14T15:49:14;2.30;;;2.10;;
78903;SDS011;68291;49.602;8.722;2023-05-14T15:52:14;2.10;;;1.90;;
78903;SDS011;68291;49.602;8.722;2023-05-14T15:55:13;4.65;;;2.00;;
78903;SDS011;68291;49.602;8.722;2023-05-14T15:58:11;2.00;;;1.90;;
78903;SDS011;68291;49.602;8.722;2023-05-14T16:01:33;2.47;;;1.73;;
78903;SDS011;68291;49.602;8.722;2023-05-14T16:04:24;1.80;;;1.70;;
78903;SDS011;68291;49.602;8.722;2023-05-14T16:07:13;1.90;;;1.80;;
78903;SDS011;68291;49.602;8.722;2023-05-14T16:10:11;1.90;;;1.80;;
78903;SDS011;68291;49.602;8.722;2023-05-14T16:13:09;1.98;;;1.70;;
78903;SDS011;68291;49.602;8.722;2023-05-14T16:15:58;1.90;;;1.77;;
78903;SDS011;68291;49.602;8.722;2023-05-14T16:19:12;1.83;;;1.70;;
78903;SDS011;68291;49.602;8.722;2023-05-14T16:22:11;2.00;;;1.80;;
78903;SDS011;68291;49.602;8.722;2023-05-14T16:25:09;2.35;;;1.80;;
78903;SDS011;68291;49.602;8.722;2023-05-14T16:28:07;1.92;;;1.70;;
78903;SDS011;68291;49.602;8.722;2023-05-14T16:30:57;2.15;;;1.92;;
78903;SDS011;68291;49.602;8.722;2023-05-14T16:33:49;1.95;;;1.75;;
78903;SDS011;68291;49.602;8.722;2023-05-14T16:37:07;1.92;;;1.73;;
78903;SDS011;68291;49.602;8.722;2023-05-14T16:40:17;2.00;;;1.90;;
78903;SDS011;68291;49.602;8.722;2023-05-14T16:43:09;2.72;;;1.60;;
78903;SDS011;68291;49.602;8.722;2023-05-14T16:45:58;2.38;;;1.90;;
78903;SDS011;68291;49.602;8.722;2023-05-14T16:49:01;2.00;;;1.80;;
78903;SDS011;68291;49.602;8.722;2023-05-14T16:52:12;2.85;;;1.90;;
78903;SDS011;68291;49.602;8.722;2023-05-14T16:55:16;3.28;;;1.80;;
78903;SDS011;68291;49.602;8.722;2023-05-14T16:58:09;3.93;;;1.87;;
78903;SDS011;68291;49.602;8.722;2023-05-14T17:01:09;2.00;;;1.80;;
78903;SDS011;68291;49.602;8.722;2023-05-14T17:04:07;1.90;;;1.80;;
78903;SDS011;68291;49.602;8.722;2023-05-14T17:07:19;1.90;;;1.80;;
78903;SDS011;68291;49.602;8.722;2023-05-14T17:10:14;2.30;;;1.83;;
78903;SDS011;68291;49.602;8.722;2023-05-14T17:13:22;2.13;;;1.93;;
78903;SDS011;68291;49.602;8.722;2023-05-14T17:16:19;2.17;;;2.07;;
78903;SDS011;68291;49.602;8.722;2023-05-14T17:19:33;1.90;;;1.70;;
78903;SDS011;68291;49.602;8.722;2023-05-14T17:22:35;2.10;;;1.90;;
78903;SDS011;68291;49.602;8.722;2023-05-14T17:25:29;2.33;;;2.00;;
78903;SDS011;68291;49.602;8.722;2023-05-14T17:28:20;2.10;;;1.90;;
78903;SDS011;68291;49.602;8.722;2023-05-14T17:31:27;3.30;;;1.80;;
78903;SDS011;68291;49.602;8.722;2023-05-14T17:34:25;2.30;;;2.10;;
78903;SDS011;68291;49.602;8.722;2023-05-14T17:37:17;2.00;;;1.90;;
78903;SDS011;68291;49.602;8.722;2023-05-14T17:40:28;5.40;;;2.10;;
78903;SDS011;68291;49.602;8.722;2023-05-14T17:43:32;2.00;;;1.90;;
78903;SDS011;68291;49.602;8.722;2023-05-14T17:46:30;2.03;;;1.90;;
78903;SDS011;68291;49.602;8.722;2023-05-14T17:49:33;2.60;;;2.13;;
78903;SDS011;68291;49.602;8.722;2023-05-14T17:52:31;2.23;;;1.90;;
78903;SDS011;68291;49.602;8.722;2023-05-14T17:55:25;2.10;;;1.90;;